Time;durP1;ratioP1;P1;durP2;ratioP2;P2;SDS_P1;SDS_P2;PMS_P1;PMS_P2;Temp;Humidity;BMP_temperature;BMP_pressure;BME280_temperature;BME280_humidity;BME280_pressure;Samples;Min_cycle;Max_cycle;Signal;HPM_P1;HPM_P2
2023/06/17 00:02:20;;;;;;;3.80;3.50;;;25.20;48.20;;;;;;5041859;28;20988;-68
2023/06/17 00:04:46;;;;;;;3.93;3.53;;;25.10;48.10;;;;;;5048737;28;20274;-69
2023/06/17 00:07:11;;;;;;;4.30;3.90;;;25.10;48.20;;;;;;5040214;28;20184;-68
2023/06/17 00:09:40;;;;;;;5.03;3.60;;;25.10;48.10;;;;;;5052956;28;21007;-68
2023/06/17 00:12:07;;;;;;;4.03;3.67;;;25.10;48.10;;;;;;5049637;28;20211;-68
2023/06/17 00:14:33;;;;;;;3.90;3.60;;;25.10;48.10;;;;;;5042804;28;20441;-68
2023/06/17 00:17:00;;;;;;;4.90;3.90;;;25.10;48.10;;;;;;5043993;28;20427;-68
2023/06/17 00:19:27;;;;;;;4.43;4.03;;;25.10;48.20;;;;;;5034210;28;20168;-68
2023/06/17 00:21:53;;;;;;;4.43;3.60;;;25.10;48.20;;;;;;5047110;28;20858;-68
2023/06/17 00:24:19;;;;;;;4.27;3.87;;;25.10;48.20;;;;;;5043150;28;20524;-68
2023/06/17 00:26:46;;;;;;;4.00;3.20;;;25.10;48.20;;;;;;5044536;28;20619;-67
2023/06/17 00:29:11;;;;;;;4.00;3.70;;;25.10;48.20;;;;;;5036488;28;20947;-68
2023/06/17 00:31:37;;;;;;;4.00;3.70;;;25.10;48.20;;;;;;5048357;28;20536;-68
2023/06/17 00:34:03;;;;;;;5.40;3.60;;;25.10;48.20;;;;;;5033469;28;20221;-68
2023/06/17 00:36:28;;;;;;;4.10;3.80;;;25.10;48.30;;;;;;5050075;28;20241;-68
2023/06/17 00:38:54;;;;;;;4.40;3.67;;;25.10;48.30;;;;;;5052503;28;20207;-68
2023/06/17 00:41:20;;;;;;;3.80;3.50;;;25.10;48.30;;;;;;5044790;28;20533;-69
2023/06/17 00:43:46;;;;;;;4.20;3.73;;;25.10;48.30;;;;;;5053789;28;20178;-69
2023/06/17 00:46:37;;;;;;;3.77;3.47;;;25.10;48.80;;;;;;5041384;28;20458;-68
2023/06/17 00:49:04;;;;;;;5.13;3.40;;;25.10;48.30;;;;;;5034190;28;20156;-68
2023/06/17 00:51:32;;;;;;;4.13;3.83;;;25.10;48.30;;;;;;5034991;28;21025;-69
2023/06/17 00:53:58;;;;;;;3.80;3.50;;;25.10;48.30;;;;;;5041556;28;21004;-68
2023/06/17 00:56:26;;;;;;;4.20;3.90;;;25.10;48.30;;;;;;5042451;28;20954;-68
2023/06/17 00:58:53;;;;;;;4.20;3.50;;;25.00;48.30;;;;;;5045491;28;20427;-67
2023/06/17 01:01:19;;;;;;;4.20;3.87;;;25.10;48.30;;;;;;5038077;28;20428;-68
2023/06/17 01:03:45;;;;;;;3.97;3.57;;;25.10;48.40;;;;;;5036206;28;20981;-68
2023/06/17 01:06:17;;;;;;;3.80;3.37;;;25.10;48.40;;;;;;5043644;28;20214;-68
2023/06/17 01:08:57;;;;;;;6.80;3.47;;;25.10;48.40;;;;;;5034814;28;20449;-67
2023/06/17 01:11:23;;;;;;;3.83;3.53;;;25.10;48.40;;;;;;5040756;28;20456;-70
2023/06/17 01:13:52;;;;;;;3.87;3.50;;;25.00;48.40;;;;;;5053563;28;20413;-68
2023/06/17 01:16:18;;;;;;;5.13;3.67;;;25.00;48.40;;;;;;5053454;28;20434;-68
2023/06/17 01:18:48;;;;;;;4.00;3.60;;;25.00;48.40;;;;;;5053683;28;20782;-68
2023/06/17 01:21:15;;;;;;;3.93;3.63;;;25.00;48.40;;;;;;5053469;28;20929;-68
2023/06/17 01:23:42;;;;;;;3.60;3.20;;;25.00;48.40;;;;;;5044963;28;20494;-68
2023/06/17 01:26:07;;;;;;;4.03;3.63;;;25.00;48.50;;;;;;5033361;28;20441;-68
2023/06/17 01:28:34;;;;;;;4.03;3.63;;;25.00;48.40;;;;;;5033372;28;20418;-67
2023/06/17 01:31:00;;;;;;;4.33;3.70;;;25.00;48.50;;;;;;5033202;28;20226;-68
2023/06/17 01:33:26;;;;;;;4.13;3.73;;;25.00;48.40;;;;;;5033530;28;20414;-68
2023/06/17 01:36:06;;;;;;;5.30;3.80;;;25.00;48.40;;;;;;5033284;28;20433;-68
2023/06/17 01:38:42;;;;;;;4.17;3.77;;;25.00;48.40;;;;;;5033465;28;20620;-68
2023/06/17 01:41:17;;;;;;;4.43;4.10;;;25.00;48.40;;;;;;5038628;28;20918;-67
2023/06/17 01:43:44;;;;;;;3.43;3.13;;;25.00;48.80;;;;;;5040771;28;20425;-67
2023/06/17 01:46:13;;;;;;;3.47;3.17;;;25.00;49.00;;;;;;5041036;28;20541;-68
2023/06/17 01:48:39;;;;;;;3.97;3.63;;;25.00;48.50;;;;;;5033255;28;20781;-67
2023/06/17 01:51:05;;;;;;;3.90;3.60;;;25.00;48.50;;;;;;5045253;28;20981;-69
2023/06/17 01:53:31;;;;;;;4.67;3.90;;;25.00;48.50;;;;;;5048182;28;20426;-68
2023/06/17 01:55:57;;;;;;;4.27;3.87;;;25.00;48.50;;;;;;5035290;28;20449;-67
2023/06/17 01:58:22;;;;;;;4.20;3.80;;;25.00;48.50;;;;;;5049144;28;20933;-67
2023/06/17 02:00:48;;;;;;;3.93;3.53;;;25.00;48.50;;;;;;5049162;28;20739;-67
2023/06/17 02:03:15;;;;;;;5.30;3.60;;;25.00;48.50;;;;;;5040678;28;20180;-68
2023/06/17 02:05:41;;;;;;;3.50;3.20;;;25.00;48.50;;;;;;5047170;28;20559;-68
2023/06/17 02:08:07;;;;;;;4.00;3.70;;;25.00;48.50;;;;;;5052064;28;20512;-68
2023/06/17 02:10:33;;;;;;;4.33;3.93;;;25.00;48.50;;;;;;5042555;28;20930;-68
2023/06/17 02:13:07;;;;;;;3.93;3.60;;;25.00;48.50;;;;;;5043878;28;20457;-67
2023/06/17 02:15:33;;;;;;;3.73;3.43;;;25.00;48.50;;;;;;5038462;28;20450;-69
2023/06/17 02:17:59;;;;;;;4.57;3.93;;;25.00;49.10;;;;;;5032638;28;20422;-68
2023/06/17 02:20:25;;;;;;;4.60;4.20;;;25.00;48.60;;;;;;5038592;28;20179;-69
2023/06/17 02:22:51;;;;;;;4.23;3.83;;;24.90;48.50;;;;;;5045619;28;20655;-69
2023/06/17 02:25:16;;;;;;;3.73;3.40;;;25.00;48.60;;;;;;5033372;28;20477;-68
2023/06/17 02:27:42;;;;;;;3.97;3.67;;;25.00;48.60;;;;;;5050132;28;20270;-68
2023/06/17 02:30:09;;;;;;;3.93;3.60;;;24.90;48.50;;;;;;5036119;28;20221;-68
2023/06/17 02:32:35;;;;;;;5.93;4.27;;;24.90;48.50;;;;;;5052236;28;20207;-68
2023/06/17 02:35:02;;;;;;;4.50;3.73;;;24.90;48.50;;;;;;5044121;28;20450;-69
2023/06/17 02:37:28;;;;;;;4.33;3.93;;;24.90;48.50;;;;;;5032895;28;20241;-68
2023/06/17 02:39:54;;;;;;;4.37;3.70;;;24.90;48.50;;;;;;5036294;28;20938;-69
2023/06/17 02:42:20;;;;;;;4.63;4.23;;;24.90;48.50;;;;;;5037936;28;20244;-69
2023/06/17 02:44:45;;;;;;;3.47;3.17;;;24.90;48.50;;;;;;5034452;28;20199;-68
2023/06/17 02:47:11;;;;;;;4.60;4.20;;;24.90;48.50;;;;;;5037638;28;20183;-69
2023/06/17 02:49:36;;;;;;;3.87;3.57;;;24.90;48.50;;;;;;5032987;28;20183;-69
2023/06/17 02:52:02;;;;;;;4.07;3.77;;;24.90;48.60;;;;;;5037852;28;20223;-69
2023/06/17 02:54:28;;;;;;;3.80;3.50;;;24.90;48.50;;;;;;5031905;28;20254;-68
2023/06/17 02:56:53;;;;;;;3.77;3.37;;;24.90;48.50;;;;;;5033658;28;20552;-68
2023/06/17 02:59:19;;;;;;;4.30;3.90;;;24.90;48.50;;;;;;5031956;28;20550;-68
2023/06/17 03:01:44;;;;;;;4.17;3.87;;;24.90;48.50;;;;;;5039496;28;20183;-69
2023/06/17 03:04:11;;;;;;;3.90;3.50;;;24.90;48.50;;;;;;5043916;28;20241;-69
2023/06/17 03:06:40;;;;;;;3.90;3.50;;;24.90;48.50;;;;;;5032212;28;20234;-68
2023/06/17 03:09:07;;;;;;;4.53;4.13;;;24.90;48.50;;;;;;5046055;28;20937;-69
2023/06/17 03:11:32;;;;;;;3.70;3.40;;;24.90;48.50;;;;;;5054500;28;20457;-69
2023/06/17 03:13:58;;;;;;;4.13;3.73;;;24.90;48.60;;;;;;5055808;28;20778;-68
2023/06/17 03:16:24;;;;;;;4.67;4.27;;;24.90;48.60;;;;;;5055733;28;20249;-69
2023/06/17 03:18:50;;;;;;;4.80;3.70;;;24.90;48.50;;;;;;5055726;28;20229;-68
2023/06/17 03:21:16;;;;;;;4.30;3.90;;;24.90;48.50;;;;;;5045653;28;20480;-68
2023/06/17 03:23:42;;;;;;;4.27;3.87;;;24.90;48.50;;;;;;5035951;28;20418;-68
2023/06/17 03:26:09;;;;;;;3.70;3.40;;;24.90;48.40;;;;;;5035611;28;20191;-69
2023/06/17 03:28:35;;;;;;;4.00;3.70;;;24.90;48.40;;;;;;5035632;28;20175;-69
2023/06/17 03:31:01;;;;;;;4.37;3.97;;;24.90;48.40;;;;;;5035476;28;20457;-69
2023/06/17 03:33:26;;;;;;;4.40;3.90;;;24.90;48.40;;;;;;5035810;28;20418;-68
2023/06/17 03:35:52;;;;;;;4.83;4.43;;;24.90;48.90;;;;;;5035577;28;20200;-68
2023/06/17 03:38:19;;;;;;;7.07;3.83;;;24.90;48.40;;;;;;5035770;28;20198;-67
2023/06/17 03:40:45;;;;;;;4.03;3.73;;;24.90;48.40;;;;;;5036357;28;20632;-68
2023/06/17 03:43:13;;;;;;;8.50;4.60;;;24.90;48.30;;;;;;5051366;28;20475;-68
2023/06/17 03:45:39;;;;;;;4.70;4.30;;;24.90;48.30;;;;;;5041771;28;20187;-68
2023/06/17 03:48:05;;;;;;;3.93;3.63;;;24.90;48.30;;;;;;5055142;28;20492;-68
2023/06/17 03:50:31;;;;;;;4.47;4.07;;;24.90;48.30;;;;;;5048749;28;20259;-69
2023/06/17 03:52:57;;;;;;;4.40;4.10;;;24.90;48.30;;;;;;5052897;28;20856;-69
2023/06/17 03:55:23;;;;;;;5.67;3.70;;;24.90;48.30;;;;;;5053054;28;20460;-69
2023/06/17 03:57:49;;;;;;;4.30;4.00;;;24.90;48.40;;;;;;5046199;28;20432;-69
2023/06/17 04:00:15;;;;;;;3.93;3.60;;;24.90;48.30;;;;;;5042072;28;20441;-69
2023/06/17 04:02:44;;;;;;;4.80;4.40;;;24.90;48.30;;;;;;5037004;28;20434;-68
2023/06/17 04:05:13;;;;;;;4.30;4.00;;;24.90;48.20;;;;;;5040347;28;20838;-68
2023/06/17 04:07:40;;;;;;;4.63;4.23;;;24.90;48.30;;;;;;5053484;28;20440;-69
2023/06/17 04:10:09;;;;;;;4.80;4.30;;;24.90;48.20;;;;;;5052993;28;20516;-69
2023/06/17 04:12:37;;;;;;;4.53;4.17;;;24.90;48.20;;;;;;5040090;28;20515;-69
2023/06/17 04:15:05;;;;;;;5.03;4.53;;;24.90;48.20;;;;;;5042949;28;20449;-69
2023/06/17 04:17:31;;;;;;;4.40;4.10;;;24.90;48.20;;;;;;5042175;28;20458;-68
2023/06/17 04:19:58;;;;;;;4.60;4.20;;;24.90;48.20;;;;;;5041084;28;20507;-69
2023/06/17 04:22:24;;;;;;;4.97;4.57;;;24.90;48.20;;;;;;5051399;28;20240;-69
2023/06/17 04:24:55;;;;;;;4.43;4.00;;;24.90;48.20;;;;;;5051187;28;20461;-68
2023/06/17 04:27:21;;;;;;;4.53;4.10;;;24.80;48.10;;;;;;5050337;28;20258;-69
2023/06/17 04:29:47;;;;;;;4.30;3.90;;;24.90;48.70;;;;;;5050024;28;20430;-69
2023/06/17 04:32:15;;;;;;;4.53;4.13;;;24.90;48.20;;;;;;5046831;28;20522;-68
2023/06/17 04:34:47;;;;;;;5.27;4.77;;;24.90;48.20;;;;;;5048638;28;20961;-68
2023/06/17 04:37:14;;;;;;;4.27;3.87;;;24.90;48.20;;;;;;5043584;28;20422;-68
2023/06/17 04:39:41;;;;;;;4.83;4.43;;;24.90;48.10;;;;;;5052645;28;20437;-68
2023/06/17 04:42:10;;;;;;;4.40;4.00;;;24.80;48.10;;;;;;5042419;28;20446;-69
2023/06/17 04:44:39;;;;;;;4.17;3.83;;;24.90;48.20;;;;;;5050987;28;20453;-69
2023/06/17 04:47:06;;;;;;;4.63;4.23;;;24.90;48.10;;;;;;5037147;28;20442;-68
2023/06/17 04:49:38;;;;;;;5.37;4.23;;;24.90;48.10;;;;;;5054017;28;20930;-68
2023/06/17 04:52:05;;;;;;;4.50;4.10;;;24.90;48.20;;;;;;5044231;28;20545;-69
2023/06/17 04:54:31;;;;;;;4.60;4.20;;;24.90;48.20;;;;;;5034937;28;20449;-69
2023/06/17 04:56:57;;;;;;;4.33;3.67;;;24.90;48.20;;;;;;5041379;28;20432;-67
2023/06/17 04:59:22;;;;;;;4.50;4.10;;;24.90;48.10;;;;;;5043479;28;20176;-68
2023/06/17 05:01:48;;;;;;;4.67;4.27;;;24.90;48.10;;;;;;5040006;28;20217;-68
2023/06/17 05:04:14;;;;;;;4.17;3.87;;;24.90;48.20;;;;;;5042913;28;20583;-68
2023/06/17 05:06:39;;;;;;;3.93;3.50;;;24.90;48.20;;;;;;5051569;28;20187;-68
2023/06/17 05:09:05;;;;;;;4.93;3.83;;;24.90;48.20;;;;;;5047837;28;20260;-68
2023/06/17 05:11:30;;;;;;;4.80;4.40;;;24.90;48.20;;;;;;5033655;28;20234;-66
2023/06/17 05:13:56;;;;;;;3.93;3.63;;;24.90;48.20;;;;;;5033648;28;20172;-68
2023/06/17 05:16:22;;;;;;;4.40;4.00;;;24.90;48.20;;;;;;5033580;28;20722;-68
2023/06/17 05:18:47;;;;;;;4.27;3.87;;;25.00;48.30;;;;;;5033510;28;20660;-69
2023/06/17 05:21:13;;;;;;;4.77;4.37;;;25.00;48.30;;;;;;5037460;28;20262;-69
2023/06/17 05:23:38;;;;;;;3.53;3.20;;;25.00;48.30;;;;;;5053368;28;20171;-68
2023/06/17 05:26:04;;;;;;;4.33;3.93;;;25.00;48.30;;;;;;5053290;28;20202;-68
2023/06/17 05:28:30;;;;;;;3.80;3.50;;;25.00;48.30;;;;;;5052850;28;20235;-68
2023/06/17 05:30:55;;;;;;;2.93;2.73;;;25.00;48.30;;;;;;5051460;28;20206;-68
2023/06/17 05:33:21;;;;;;;3.83;3.53;;;25.00;48.30;;;;;;5053173;28;20179;-68
2023/06/17 05:35:46;;;;;;;4.00;3.60;;;25.00;48.30;;;;;;5053124;28;20195;-69
2023/06/17 05:38:12;;;;;;;4.17;3.83;;;25.00;48.40;;;;;;5052576;28;20578;-69
2023/06/17 05:40:37;;;;;;;4.30;3.90;;;25.00;48.40;;;;;;5052233;28;20167;-68
2023/06/17 05:43:03;;;;;;;3.93;3.63;;;25.00;48.40;;;;;;5050728;28;20222;-69
2023/06/17 05:45:28;;;;;;;4.50;3.67;;;25.00;48.40;;;;;;5045470;28;20385;-68
2023/06/17 05:47:54;;;;;;;3.53;3.23;;;25.00;48.40;;;;;;5036258;28;20947;-68
2023/06/17 05:50:21;;;;;;;4.00;3.70;;;25.00;48.40;;;;;;5043158;28;20543;-69
2023/06/17 05:52:46;;;;;;;3.70;3.40;;;25.10;48.40;;;;;;5043988;28;20453;-68
2023/06/17 05:55:12;;;;;;;4.87;4.40;;;25.10;48.40;;;;;;5043921;28;20508;-69
2023/06/17 05:57:37;;;;;;;4.03;3.63;;;25.10;48.40;;;;;;5033905;28;20211;-69
2023/06/17 06:00:04;;;;;;;4.23;3.73;;;25.10;48.50;;;;;;5033057;28;20199;-69
2023/06/17 06:02:29;;;;;;;4.10;3.70;;;25.10;48.40;;;;;;5044392;28;20217;-66
2023/06/17 06:04:55;;;;;;;4.47;3.80;;;25.10;48.40;;;;;;5043833;28;20489;-67
2023/06/17 06:07:20;;;;;;;3.23;2.93;;;25.10;48.40;;;;;;5047739;28;20183;-67
2023/06/17 06:09:46;;;;;;;4.10;3.70;;;25.10;48.50;;;;;;5038515;28;20257;-66
2023/06/17 06:12:12;;;;;;;4.50;4.10;;;25.10;48.50;;;;;;5046537;28;20210;-66
2023/06/17 06:14:38;;;;;;;4.20;3.80;;;25.10;48.50;;;;;;5032407;28;20187;-66
2023/06/17 06:17:03;;;;;;;3.90;3.40;;;25.10;48.40;;;;;;5032447;28;20898;-68
2023/06/17 06:19:29;;;;;;;4.10;3.70;;;25.10;48.40;;;;;;5046802;28;20186;-68
2023/06/17 06:21:54;;;;;;;5.40;3.93;;;25.10;48.30;;;;;;5049391;28;20191;-66
2023/06/17 06:24:20;;;;;;;4.13;3.83;;;25.10;48.30;;;;;;5036709;28;20311;-67
2023/06/17 06:26:46;;;;;;;3.73;3.43;;;25.10;48.30;;;;;;5037407;28;20183;-68
2023/06/17 06:29:13;;;;;;;4.20;3.90;;;25.10;48.30;;;;;;5040945;28;20182;-68
2023/06/17 06:31:42;;;;;;;4.20;3.80;;;25.10;48.30;;;;;;5052685;28;20668;-66
2023/06/17 06:34:08;;;;;;;4.40;4.00;;;25.10;48.30;;;;;;5035276;28;20956;-66
2023/06/17 06:36:33;;;;;;;4.07;3.67;;;25.10;48.30;;;;;;5032158;28;20525;-66
2023/06/17 06:38:59;;;;;;;4.23;3.83;;;25.10;48.40;;;;;;5047565;28;20184;-67
2023/06/17 06:41:25;;;;;;;4.77;4.37;;;25.10;48.40;;;;;;5051824;28;20179;-68
2023/06/17 06:43:50;;;;;;;4.37;3.80;;;25.10;48.40;;;;;;5050236;28;20191;-67
2023/06/17 06:46:16;;;;;;;3.90;3.57;;;25.10;48.40;;;;;;5032335;28;20504;-68
2023/06/17 06:48:42;;;;;;;5.80;4.30;;;25.10;48.40;;;;;;5048474;28;20222;-69
2023/06/17 06:51:07;;;;;;;4.63;4.10;;;25.10;48.40;;;;;;5031758;28;20680;-66
2023/06/17 06:53:34;;;;;;;6.00;3.70;;;25.10;48.40;;;;;;5043166;28;20679;-66
2023/06/17 06:56:00;;;;;;;4.30;3.90;;;25.10;48.40;;;;;;5038471;28;20485;-67
2023/06/17 06:58:25;;;;;;;4.40;4.00;;;25.10;48.40;;;;;;5042573;28;20186;-65
2023/06/17 07:00:51;;;;;;;3.70;3.40;;;25.10;48.50;;;;;;5040319;28;20175;-67
2023/06/17 07:03:17;;;;;;;4.67;4.27;;;25.10;48.50;;;;;;5041166;28;20593;-67
2023/06/17 07:05:43;;;;;;;4.57;4.17;;;25.10;48.50;;;;;;5043781;28;20646;-67
2023/06/17 07:08:08;;;;;;;3.87;3.57;;;25.10;48.50;;;;;;5032137;28;20176;-68
2023/06/17 07:10:39;;;;;;;4.37;3.97;;;25.10;48.60;;;;;;5038356;28;20440;-67
2023/06/17 07:13:05;;;;;;;4.30;3.90;;;25.10;48.60;;;;;;5051736;28;20206;-67
2023/06/17 07:15:31;;;;;;;4.43;3.53;;;25.10;48.60;;;;;;5051895;28;20548;-67
2023/06/17 07:17:56;;;;;;;4.47;3.90;;;25.10;48.60;;;;;;5051908;28;20949;-67
2023/06/17 07:20:22;;;;;;;4.20;3.90;;;25.10;48.60;;;;;;5051654;28;20751;-67
2023/06/17 07:22:47;;;;;;;4.10;3.70;;;25.10;48.70;;;;;;5044491;28;20591;-68
2023/06/17 07:25:13;;;;;;;4.90;4.40;;;25.10;48.70;;;;;;5031595;28;20282;-67
2023/06/17 07:27:38;;;;;;;3.57;3.27;;;25.10;48.70;;;;;;5031670;28;20172;-67
2023/06/17 07:30:05;;;;;;;3.97;3.67;;;25.20;48.70;;;;;;5031639;28;20179;-70
2023/06/17 07:32:30;;;;;;;4.07;3.67;;;25.10;49.00;;;;;;5031571;28;20234;-67
2023/06/17 07:34:56;;;;;;;4.40;4.00;;;25.10;48.70;;;;;;5031512;28;20469;-68
2023/06/17 07:37:21;;;;;;;3.90;3.47;;;25.10;48.70;;;;;;5031944;28;20175;-67
2023/06/17 07:39:47;;;;;;;3.97;3.57;;;25.20;48.80;;;;;;5031577;28;20519;-67
2023/06/17 07:42:16;;;;;;;4.17;3.77;;;25.20;49.40;;;;;;5032761;28;20214;-64
2023/06/17 07:44:43;;;;;;;6.20;4.10;;;25.20;48.80;;;;;;5047281;28;20198;-67
2023/06/17 07:47:09;;;;;;;4.40;4.00;;;25.20;48.90;;;;;;5034957;28;20889;-66
2023/06/17 07:49:36;;;;;;;4.20;3.80;;;25.20;48.90;;;;;;5051341;28;20450;-66
2023/06/17 07:52:02;;;;;;;4.13;3.77;;;25.10;48.90;;;;;;5048310;28;20207;-66
2023/06/17 07:54:28;;;;;;;4.10;3.80;;;25.20;48.90;;;;;;5034560;28;20440;-67
2023/06/17 07:56:53;;;;;;;4.70;4.30;;;25.20;48.90;;;;;;5038107;28;20430;-67
2023/06/17 07:59:19;;;;;;;3.57;3.27;;;25.20;48.90;;;;;;5054897;28;20175;-66
2023/06/17 08:01:45;;;;;;;4.00;3.60;;;25.20;48.90;;;;;;5052221;28;20183;-65
2023/06/17 08:04:10;;;;;;;4.47;4.07;;;25.20;48.90;;;;;;5044208;28;20210;-66
2023/06/17 08:06:37;;;;;;;6.87;4.20;;;25.20;49.00;;;;;;5035028;28;20521;-67
2023/06/17 08:09:03;;;;;;;8.53;3.80;;;25.20;49.00;;;;;;5036350;28;20214;-67
2023/06/17 08:11:29;;;;;;;5.10;4.60;;;25.20;48.90;;;;;;5040276;28;20485;-66
2023/06/17 08:13:54;;;;;;;5.87;3.90;;;25.20;49.00;;;;;;5041056;28;20266;-67
2023/06/17 08:16:20;;;;;;;4.57;4.17;;;25.20;49.00;;;;;;5034665;28;20626;-66
2023/06/17 08:18:45;;;;;;;4.10;3.80;;;25.20;49.00;;;;;;5051401;28;20174;-70
2023/06/17 08:21:11;;;;;;;4.67;4.10;;;25.20;49.00;;;;;;5035207;28;20214;-67
2023/06/17 08:23:36;;;;;;;4.30;3.97;;;25.20;49.00;;;;;;5035644;28;20241;-66
2023/06/17 08:26:02;;;;;;;4.30;3.90;;;25.20;49.00;;;;;;5040648;28;20755;-67
2023/06/17 08:28:27;;;;;;;4.27;3.97;;;25.20;49.00;;;;;;5034687;28;20212;-66
2023/06/17 08:30:53;;;;;;;4.47;4.13;;;25.20;49.00;;;;;;5050356;28;20183;-66
2023/06/17 08:33:19;;;;;;;5.23;4.70;;;25.20;49.00;;;;;;5037381;28;20229;-66
2023/06/17 08:35:44;;;;;;;5.23;4.10;;;25.20;49.00;;;;;;5050984;28;20191;-66
2023/06/17 08:38:10;;;;;;;4.33;4.00;;;25.20;49.00;;;;;;5046454;28;20263;-67
2023/06/17 08:40:37;;;;;;;3.70;3.40;;;25.20;49.00;;;;;;5046229;28;20596;-65
2023/06/17 08:43:03;;;;;;;4.80;4.40;;;25.20;49.00;;;;;;5038174;28;20179;-67
2023/06/17 08:45:29;;;;;;;5.27;4.40;;;25.20;49.00;;;;;;5053089;28;20449;-67
2023/06/17 08:47:56;;;;;;;4.57;4.13;;;25.20;49.00;;;;;;5048383;28;20957;-67
2023/06/17 08:50:24;;;;;;;4.93;4.53;;;25.20;49.00;;;;;;5050021;28;20441;-66
2023/06/17 08:52:50;;;;;;;5.03;4.50;;;25.20;49.00;;;;;;5037052;28;20551;-66
2023/06/17 08:55:16;;;;;;;5.40;3.60;;;25.20;49.00;;;;;;5050673;28;20840;-66
2023/06/17 08:57:43;;;;;;;4.57;4.17;;;25.20;49.00;;;;;;5053818;28;20413;-67
2023/06/17 09:00:12;;;;;;;4.60;4.20;;;25.20;49.00;;;;;;5050293;28;20186;-67
2023/06/17 09:02:38;;;;;;;4.27;3.87;;;25.20;49.10;;;;;;5053713;28;20429;-66
2023/06/17 09:05:04;;;;;;;4.83;4.43;;;25.20;49.00;;;;;;5042595;28;20454;-68
2023/06/17 09:07:30;;;;;;;4.67;4.27;;;25.20;49.00;;;;;;5051361;28;20555;-66
2023/06/17 09:10:05;;;;;;;5.20;4.40;;;25.20;49.10;;;;;;5049284;28;20422;-67
2023/06/17 09:12:37;;;;;;;5.00;4.60;;;25.20;49.10;;;;;;5033563;28;20193;-66
2023/06/17 09:15:05;;;;;;;4.00;3.60;;;25.20;49.10;;;;;;5033489;28;20489;-67
2023/06/17 09:17:32;;;;;;;3.67;3.37;;;25.20;49.10;;;;;;5032288;28;20457;-66
2023/06/17 09:20:08;;;;;;;4.70;4.20;;;25.20;49.10;;;;;;5033408;28;20926;-66
2023/06/17 09:22:35;;;;;;;4.20;3.80;;;25.20;49.10;;;;;;5040181;28;20906;-66
2023/06/17 09:25:01;;;;;;;4.80;4.30;;;25.20;49.10;;;;;;5053193;28;20520;-66
2023/06/17 09:27:26;;;;;;;4.50;4.10;;;25.20;49.20;;;;;;5053463;28;20501;-66
2023/06/17 09:30:11;;;;;;;4.03;3.73;;;25.20;49.20;;;;;;5053206;28;20621;-66
2023/06/17 09:32:39;;;;;;;4.40;4.00;;;25.20;49.20;;;;;;5053412;28;20673;-67
2023/06/17 09:35:06;;;;;;;4.97;4.17;;;25.20;49.20;;;;;;5051810;28;20621;-67
2023/06/17 09:37:31;;;;;;;5.20;4.10;;;25.20;49.20;;;;;;5052121;28;20425;-68
2023/06/17 09:39:58;;;;;;;5.80;4.60;;;25.20;49.20;;;;;;5051119;28;20425;-68
2023/06/17 09:42:30;;;;;;;5.67;4.10;;;25.20;49.20;;;;;;5052304;28;20199;-67
2023/06/17 09:44:56;;;;;;;4.87;4.40;;;25.20;49.20;;;;;;5039585;28;20482;-66
2023/06/17 09:47:33;;;;;;;4.20;3.90;;;25.20;49.20;;;;;;5049261;28;21032;-67
2023/06/17 09:50:08;;;;;;;4.43;4.00;;;25.20;49.20;;;;;;5041769;28;20815;-67
2023/06/17 09:52:36;;;;;;;4.07;3.67;;;25.30;49.30;;;;;;5045906;28;20457;-67
2023/06/17 09:55:05;;;;;;;4.13;3.73;;;25.20;49.20;;;;;;5034356;28;20474;-66
2023/06/17 09:57:32;;;;;;;4.83;4.43;;;25.20;49.20;;;;;;5032783;28;20410;-66
2023/06/17 10:00:09;;;;;;;4.50;4.00;;;25.20;49.20;;;;;;5044372;28;20433;-66
2023/06/17 10:02:35;;;;;;;5.33;4.83;;;25.20;49.20;;;;;;5047187;28;20930;-66
2023/06/17 10:05:00;;;;;;;3.97;3.67;;;25.30;49.30;;;;;;5034547;28;20457;-68
2023/06/17 10:07:27;;;;;;;4.80;4.37;;;25.20;49.20;;;;;;5046593;28;20195;-67
2023/06/17 10:09:53;;;;;;;3.97;3.57;;;25.20;49.20;;;;;;5043526;28;20178;-68
2023/06/17 10:12:21;;;;;;;4.77;3.83;;;25.20;49.20;;;;;;5049220;28;20974;-68
2023/06/17 10:14:48;;;;;;;4.63;4.23;;;25.20;49.20;;;;;;5047345;28;20218;-68
2023/06/17 10:17:16;;;;;;;4.50;4.20;;;25.20;49.20;;;;;;5031913;28;20540;-68
2023/06/17 10:19:43;;;;;;;4.87;3.73;;;25.20;49.20;;;;;;5048042;28;20436;-68
2023/06/17 10:22:12;;;;;;;4.03;3.63;;;25.30;49.20;;;;;;5034948;28;20533;-68
2023/06/17 10:24:37;;;;;;;4.40;4.00;;;25.30;49.20;;;;;;5047653;28;20997;-68
2023/06/17 10:27:07;;;;;;;4.47;4.07;;;25.20;49.20;;;;;;5033319;28;20434;-68
2023/06/17 10:29:33;;;;;;;5.33;4.57;;;25.30;49.20;;;;;;5041920;28;20183;-68
2023/06/17 10:32:20;;;;;;;4.57;4.17;;;25.20;49.10;;;;;;5050503;28;20473;-68
2023/06/17 10:35:11;;;;;;;4.10;3.70;;;25.30;49.10;;;;;;5036780;28;20437;-67
2023/06/17 10:37:47;;;;;;;3.97;3.67;;;25.30;49.00;;;;;;5041423;28;20422;-68
2023/06/17 10:40:19;;;;;;;3.97;3.67;;;25.20;49.10;;;;;;5031229;28;20425;-68
2023/06/17 10:43:02;;;;;;;10.43;4.70;;;25.20;49.00;;;;;;5032408;28;20430;-68
2023/06/17 10:45:32;;;;;;;4.50;4.10;;;25.20;49.10;;;;;;5049081;28;20892;-68
2023/06/17 10:48:23;;;;;;;4.87;4.27;;;25.20;49.10;;;;;;5036601;28;20544;-68
2023/06/17 10:51:12;;;;;;;3.70;3.40;;;25.20;49.10;;;;;;5042208;28;20511;-68
2023/06/17 10:53:45;;;;;;;4.97;4.57;;;25.30;49.30;;;;;;5037116;28;20819;-67
2023/06/17 10:56:11;;;;;;;4.53;3.70;;;25.20;49.20;;;;;;5041254;28;21033;-68
2023/06/17 10:58:42;;;;;;;3.93;3.60;;;25.20;49.10;;;;;;5041619;28;20505;-68
2023/06/17 11:01:09;;;;;;;6.47;4.30;;;25.30;49.10;;;;;;5039954;28;20175;-67
2023/06/17 11:03:36;;;;;;;4.30;3.63;;;25.30;49.10;;;;;;5040942;28;20779;-68
2023/06/17 11:06:10;;;;;;;5.33;4.07;;;25.30;49.00;;;;;;5041246;28;20442;-67
2023/06/17 11:08:37;;;;;;;4.33;3.93;;;25.30;49.00;;;;;;5045052;28;20423;-67
2023/06/17 11:11:11;;;;;;;4.50;4.10;;;25.30;49.00;;;;;;5042891;28;20433;-68
2023/06/17 11:13:38;;;;;;;5.23;4.13;;;25.30;49.00;;;;;;5051673;28;20426;-68
2023/06/17 11:16:04;;;;;;;5.60;4.30;;;25.30;49.00;;;;;;5051836;28;20501;-68
2023/06/17 11:18:30;;;;;;;4.97;4.57;;;25.30;49.00;;;;;;5050266;28;20456;-68
2023/06/17 11:20:55;;;;;;;5.57;4.07;;;25.30;49.00;;;;;;5051503;28;20405;-68
2023/06/17 11:23:21;;;;;;;4.53;4.13;;;25.30;49.00;;;;;;5051538;28;20240;-69
2023/06/17 11:25:51;;;;;;;5.03;4.53;;;25.30;49.00;;;;;;5050159;28;20195;-69
2023/06/17 11:28:19;;;;;;;4.47;4.07;;;25.30;49.00;;;;;;5052819;28;20159;-67
2023/06/17 11:30:45;;;;;;;4.83;3.90;;;25.30;49.00;;;;;;5055411;28;20401;-67
2023/06/17 11:33:12;;;;;;;4.13;3.80;;;25.30;48.90;;;;;;5054149;28;20412;-69
2023/06/17 11:35:38;;;;;;;4.10;3.80;;;25.30;48.90;;;;;;5054248;28;20293;-69
2023/06/17 11:38:04;;;;;;;5.47;4.13;;;25.30;48.90;;;;;;5054223;28;20512;-69
2023/06/17 11:40:30;;;;;;;4.50;4.10;;;25.30;48.90;;;;;;5053554;28;20266;-68
2023/06/17 11:42:57;;;;;;;4.43;3.80;;;25.40;48.90;;;;;;5052257;28;20524;-67
2023/06/17 11:45:23;;;;;;;4.03;3.63;;;25.40;48.90;;;;;;5046767;28;20629;-68
2023/06/17 11:47:49;;;;;;;4.20;3.80;;;25.40;48.90;;;;;;5036456;28;20438;-65
2023/06/17 11:50:15;;;;;;;5.37;4.70;;;25.40;48.80;;;;;;5049637;28;20445;-68
2023/06/17 11:52:40;;;;;;;7.23;5.17;;;25.40;48.80;;;;;;5051573;28;20231;-66
2023/06/17 11:55:13;;;;;;;5.07;4.10;;;25.40;48.80;;;;;;5045285;28;20250;-67
2023/06/17 11:57:42;;;;;;;7.23;4.60;;;25.40;48.80;;;;;;5035166;28;20588;-68
2023/06/17 12:00:10;;;;;;;5.67;4.70;;;25.40;48.70;;;;;;5045482;28;20859;-67
2023/06/17 12:02:36;;;;;;;5.23;4.83;;;25.40;48.70;;;;;;5035974;28;20437;-67
2023/06/17 12:05:02;;;;;;;4.83;4.43;;;25.40;48.70;;;;;;5036751;28;20449;-67
2023/06/17 12:07:35;;;;;;;4.43;4.07;;;25.40;48.70;;;;;;5050781;28;20194;-67
2023/06/17 12:10:01;;;;;;;4.77;4.20;;;25.40;48.60;;;;;;5053365;28;20772;-66
2023/06/17 12:12:32;;;;;;;5.17;4.17;;;25.40;48.60;;;;;;5044478;28;20453;-67
2023/06/17 12:15:09;;;;;;;5.47;4.30;;;25.40;48.60;;;;;;5036191;28;20277;-66
2023/06/17 12:17:42;;;;;;;4.63;4.07;;;25.40;48.60;;;;;;5053497;28;20421;-67
2023/06/17 12:20:15;;;;;;;5.87;3.87;;;25.40;48.60;;;;;;5041800;28;20430;-66
2023/06/17 12:22:46;;;;;;;4.73;4.33;;;25.40;48.50;;;;;;5034655;28;20521;-67
2023/06/17 12:25:13;;;;;;;4.80;3.57;;;25.40;48.60;;;;;;5041740;28;20532;-67
2023/06/17 12:27:40;;;;;;;4.57;4.13;;;25.40;48.50;;;;;;5053904;28;20421;-67
2023/06/17 12:30:07;;;;;;;4.53;3.60;;;25.40;48.50;;;;;;5037954;28;20437;-66
2023/06/17 12:32:34;;;;;;;5.03;4.50;;;25.40;48.50;;;;;;5049008;28;20548;-68
2023/06/17 12:34:59;;;;;;;7.20;3.77;;;25.40;48.50;;;;;;5035310;28;20426;-67
2023/06/17 12:37:27;;;;;;;5.07;4.57;;;25.40;48.40;;;;;;5054313;28;20405;-67
2023/06/17 12:39:56;;;;;;;4.27;3.83;;;25.40;48.40;;;;;;5052955;28;20664;-66
2023/06/17 12:42:21;;;;;;;4.63;4.23;;;25.40;48.40;;;;;;5048309;28;20434;-67
2023/06/17 12:44:48;;;;;;;4.43;4.13;;;25.40;48.40;;;;;;5034125;28;20438;-67
2023/06/17 12:47:15;;;;;;;5.90;4.70;;;25.40;48.40;;;;;;5053808;28;20224;-67
2023/06/17 12:49:41;;;;;;;4.50;4.10;;;25.40;48.40;;;;;;5039315;28;20438;-65